Time;durP1;ratioP1;P1;durP2;ratioP2;P2;SDS_P1;SDS_P2;PMS_P1;PMS_P2;Temp;Humidity;BMP_temperature;BMP_pressure;BME280_temperature;BME280_humidity;BME280_pressure;Samples;Min_cycle;Max_cycle;Signal;HPM_P1;HPM_P2
2022/12/06 00:01:45;;;;;;;;;;;;;;;21.70;38.40;95713.75;6118534;19;2080;-65
2022/12/06 00:03:49;;;;;;;;;;;;;;;21.71;38.57;95710.03;6120299;19;2090;-65
2022/12/06 00:05:52;;;;;;;;;;;;;;;21.70;38.75;95717.22;6117935;19;2086;-65
2022/12/06 00:07:58;;;;;;;;;;;;;;;21.70;38.81;95713.75;6118066;19;2099;-65
2022/12/06 00:10:02;;;;;;;;;;;;;;;21.70;38.94;95711.88;6094487;19;1829;-65
2022/12/06 00:12:05;;;;;;;;;;;;;;;21.72;38.33;95706.34;6116798;19;1905;-66
2022/12/06 00:14:09;;;;;;;;;;;;;;;21.75;37.88;95705.94;6120481;19;1918;-65
2022/12/06 00:16:14;;;;;;;;;;;;;;;21.68;38.22;95701.41;6119485;19;1945;-66
2022/12/06 00:18:17;;;;;;;;;;;;;;;21.70;38.26;95697.69;6120352;19;1928;-65
2022/12/06 00:20:21;;;;;;;;;;;;;;;21.71;37.97;95702.00;6119840;19;1860;-64
2022/12/06 00:22:24;;;;;;;;;;;;;;;21.71;38.33;95699.31;6091464;19;2048;-65
2022/12/06 00:24:30;;;;;;;;;;;;;;;21.68;38.42;95701.41;6121496;19;2114;-65
2022/12/06 00:26:37;;;;;;;;;;;;;;;21.72;38.22;95698.31;6119162;19;2006;-65
2022/12/06 00:28:40;;;;;;;;;;;;;;;21.71;38.32;95700.16;6120463;19;1881;-65
2022/12/06 00:30:44;;;;;;;;;;;;;;;21.68;38.15;95696.06;6119375;19;1980;-65
2022/12/06 00:32:47;;;;;;;;;;;;;;;21.66;38.53;95702.63;6108835;19;2256;-65
2022/12/06 00:34:50;;;;;;;;;;;;;;;21.66;38.33;95700.78;6103416;19;2192;-65
2022/12/06 00:36:53;;;;;;;;;;;;;;;21.71;38.21;95704.69;6117747;19;2117;-65
2022/12/06 00:38:57;;;;;;;;;;;;;;;21.71;38.13;95700.16;6118360;19;2217;-64
2022/12/06 00:41:04;;;;;;;;;;;;;;;21.71;38.16;95705.50;6116772;19;978;-65
2022/12/06 00:43:07;;;;;;;;;;;;;;;21.72;38.43;95706.34;6119693;19;1937;-65
2022/12/06 00:45:10;;;;;;;;;;;;;;;21.70;38.13;95703.84;6090587;19;2081;-65
2022/12/06 00:47:14;;;;;;;;;;;;;;;21.70;38.32;95697.69;6117684;19;1740;-65
2022/12/06 00:49:17;;;;;;;;;;;;;;;21.68;38.06;95696.06;6120333;19;1954;-65
2022/12/06 00:51:21;;;;;;;;;;;;;;;21.70;37.94;95697.69;6115816;19;2181;-64
2022/12/06 00:53:25;;;;;;;;;;;;;;;21.72;38.51;95696.47;6120294;19;2033;-65
2022/12/06 00:55:28;;;;;;;;;;;;;;;21.72;38.25;95701.00;6105682;19;2115;-64
2022/12/06 00:57:36;;;;;;;;;;;;;;;21.72;38.61;95695.66;6105099;19;2038;-64
2022/12/06 00:59:39;;;;;;;;;;;;;;;21.68;38.71;95696.06;6119010;19;1903;-65
2022/12/06 01:01:42;;;;;;;;;;;;;;;21.68;38.29;95693.38;6118676;19;1799;-65
2022/12/06 01:03:46;;;;;;;;;;;;;;;21.74;38.44;95691.75;6119880;19;2083;-65
2022/12/06 01:05:50;;;;;;;;;;;;;;;21.76;38.32;95694.19;6122010;19;2030;-65
2022/12/06 01:07:53;;;;;;;;;;;;;;;21.74;38.06;95682.88;6099416;19;1912;-65
2022/12/06 01:09:57;;;;;;;;;;;;;;;21.73;38.09;95686.59;6121273;19;1497;-64
2022/12/06 01:12:00;;;;;;;;;;;;;;;21.76;37.90;95681.66;6123413;19;2165;-65
2022/12/06 01:14:06;;;;;;;;;;;;;;;21.74;38.10;95683.72;6123174;19;1917;-65
2022/12/06 01:16:11;;;;;;;;;;;;;;;21.74;38.24;95685.53;6123285;19;2107;-65
2022/12/06 01:18:14;;;;;;;;;;;;;;;21.75;38.21;95689.88;6116644;19;1932;-65
2022/12/06 01:20:17;;;;;;;;;;;;;;;21.73;38.04;95682.06;6107574;19;2245;-65
2022/12/06 01:22:21;;;;;;;;;;;;;;;21.74;38.16;95682.88;6122820;19;1932;-66
2022/12/06 01:24:24;;;;;;;;;;;;;;;21.73;38.18;95671.34;6125990;19;1867;-65
2022/12/06 01:26:29;;;;;;;;;;;;;;;21.72;38.20;95669.72;6123928;19;1849;-65
2022/12/06 01:28:32;;;;;;;;;;;;;;;21.72;38.07;95674.25;6121903;19;1746;-65
2022/12/06 01:30:40;;;;;;;;;;;;;;;21.75;38.45;95676.50;6096318;19;2199;-64
2022/12/06 01:32:44;;;;;;;;;;;;;;;21.70;38.18;95677.09;6123652;19;1900;-65
2022/12/06 01:34:51;;;;;;;;;;;;;;;21.70;38.68;95670.94;6124407;19;1798;-65
2022/12/06 01:36:54;;;;;;;;;;;;;;;21.73;38.70;95668.69;6122873;19;1889;-65
2022/12/06 01:38:59;;;;;;;;;;;;;;;21.75;38.22;95663.13;6125053;19;1960;-65
2022/12/06 01:41:03;;;;;;;;;;;;;;;21.76;38.60;95662.91;6121885;19;2057;-65
2022/12/06 01:43:07;;;;;;;;;;;;;;;21.77;38.44;95666.41;6094695;19;1987;-65
2022/12/06 01:45:11;;;;;;;;;;;;;;;21.73;38.70;95660.66;6120636;19;2119;-65
2022/12/06 01:47:20;;;;;;;;;;;;;;;21.75;38.47;95668.50;6124113;19;1692;-65
2022/12/06 01:49:34;;;;;;;;;;;;;;;21.77;38.40;95658.38;6123602;19;1858;-65
2022/12/06 01:51:38;;;;;;;;;;;;;;;21.77;38.49;95655.72;6120743;19;1909;-65
2022/12/06 01:53:42;;;;;;;;;;;;;;;21.74;38.44;95651.63;6099232;19;2614;-68
2022/12/06 01:55:45;;;;;;;;;;;;;;;21.80;38.02;95656.16;6124739;19;1868;-65
2022/12/06 01:57:49;;;;;;;;;;;;;;;21.80;38.40;95653.47;6125487;19;1761;-65
2022/12/06 01:59:53;;;;;;;;;;;;;;;21.77;38.38;95653.88;6122513;19;2038;-65
2022/12/06 02:01:57;;;;;;;;;;;;;;;21.74;38.11;95651.63;6122599;19;2038;-65
2022/12/06 02:04:03;;;;;;;;;;;;;;;21.75;38.45;95649.75;6121936;19;1914;-64
2022/12/06 02:06:09;;;;;;;;;;;;;;;21.75;38.55;95647.09;6095237;19;2025;-65
2022/12/06 02:08:13;;;;;;;;;;;;;;;21.71;39.08;95646.66;6124491;19;1802;-66
2022/12/06 02:10:16;;;;;;;;;;;;;;;21.77;38.57;95645.00;6123033;19;1696;-65
2022/12/06 02:12:20;;;;;;;;;;;;;;;21.77;38.41;95640.50;6122622;19;2108;-65
2022/12/06 02:14:25;;;;;;;;;;;;;;;21.74;38.31;95637.41;6121645;19;2025;-65
2022/12/06 02:16:40;;;;;;;;;;;;;;;21.74;38.54;95646.28;6098050;19;1931;-65
2022/12/06 02:18:48;;;;;;;;;;;;;;;21.76;38.53;95641.53;6123272;19;2139;-65
2022/12/06 02:20:59;;;;;;;;;;;;;;;21.74;38.18;95645.41;6124639;19;2068;-65
2022/12/06 02:23:18;;;;;;;;;;;;;;;21.75;38.66;95637.22;6123307;19;2200;-65
2022/12/06 02:25:29;;;;;;;;;;;;;;;21.75;38.25;95636.38;6124512;19;1932;-65
2022/12/06 02:27:55;;;;;;;;;;;;;;;21.71;38.42;95638.63;6110626;19;1910;-65
2022/12/06 02:30:07;;;;;;;;;;;;;;;21.73;38.34;95630.41;6119948;19;2211;-65
2022/12/06 02:32:18;;;;;;;;;;;;;;;21.75;38.32;95636.38;6121185;19;1861;-65
2022/12/06 02:34:23;;;;;;;;;;;;;;;21.74;38.40;95632.03;6123898;19;1901;-65
2022/12/06 02:36:29;;;;;;;;;;;;;;;21.79;38.36;95618.88;6118507;19;1143;-66
2022/12/06 02:38:35;;;;;;;;;;;;;;;21.80;37.99;95617.88;6124769;19;2114;-61
2022/12/06 02:40:40;;;;;;;;;;;;;;;21.76;38.04;95621.97;6094684;19;2148;-62
2022/12/06 02:42:46;;;;;;;;;;;;;;;21.74;38.71;95613.31;6121860;19;1709;-63
2022/12/06 02:44:52;;;;;;;;;;;;;;;21.73;38.94;95609.00;6120024;19;2100;-63
2022/12/06 02:46:58;;;;;;;;;;;;;;;21.72;38.35;95610.88;6122237;19;1847;-63
2022/12/06 02:49:04;;;;;;;;;;;;;;;21.76;38.46;95605.94;6119982;19;2120;-63
2022/12/06 02:51:09;;;;;;;;;;;;;;;21.76;38.60;95611.28;6093372;19;2195;-63
2022/12/06 02:53:14;;;;;;;;;;;;;;;21.72;38.28;95610.88;6121352;19;1956;-63
2022/12/06 02:55:18;;;;;;;;;;;;;;;21.79;38.74;95616.22;6121445;19;2082;-62
2022/12/06 02:57:26;;;;;;;;;;;;;;;21.75;38.60;95615.00;6121123;19;2077;-63
2022/12/06 02:59:29;;;;;;;;;;;;;;;21.74;39.05;95613.31;6120594;19;1934;-62
2022/12/06 03:01:34;;;;;;;;;;;;;;;21.75;38.35;95609.63;6121588;19;1913;-62
2022/12/06 03:03:45;;;;;;;;;;;;;;;21.77;38.64;95608.41;6096667;19;1953;-63
2022/12/06 03:05:57;;;;;;;;;;;;;;;21.78;38.75;95611.91;6122077;19;1948;-62
2022/12/06 03:08:03;;;;;;;;;;;;;;;21.79;38.73;95606.34;6120121;19;2090;-62
2022/12/06 03:10:27;;;;;;;;;;;;;;;21.79;38.27;95609.00;6120792;19;2302;-62
2022/12/06 03:12:33;;;;;;;;;;;;;;;21.78;38.51;95606.56;6121099;19;2050;-63
2022/12/06 03:14:41;;;;;;;;;;;;;;;21.78;38.39;95603.88;6095236;19;2247;-63
2022/12/06 03:16:49;;;;;;;;;;;;;;;21.76;38.55;95614.78;6122009;19;1888;-63
2022/12/06 03:18:57;;;;;;;;;;;;;;;21.76;39.03;95617.44;6122413;19;2085;-63
2022/12/06 03:21:06;;;;;;;;;;;;;;;21.74;39.09;95616.00;6121741;19;1709;-63
2022/12/06 03:23:12;;;;;;;;;;;;;;;21.77;38.78;95615.59;6120601;19;1672;-63
2022/12/06 03:25:15;;;;;;;;;;;;;;;21.78;38.94;95614.56;6110247;19;2010;-63
2022/12/06 03:27:21;;;;;;;;;;;;;;;21.83;38.51;95615.63;6104716;19;2227;-63
2022/12/06 03:29:27;;;;;;;;;;;;;;;21.88;38.49;95610.47;6118219;19;1846;-64
2022/12/06 03:31:31;;;;;;;;;;;;;;;21.85;38.70;95618.06;6120427;19;2009;-62
2022/12/06 03:33:35;;;;;;;;;;;;;;;21.83;38.63;95610.25;6118911;19;2346;-64
2022/12/06 03:35:38;;;;;;;;;;;;;;;21.85;38.75;95607.38;6117759;19;1942;-63
2022/12/06 03:37:46;;;;;;;;;;;;;;;21.85;38.99;95610.03;6096432;19;2215;-64
2022/12/06 03:39:54;;;;;;;;;;;;;;;21.87;38.61;95605.31;6118124;19;1141;-63
2022/12/06 03:41:59;;;;;;;;;;;;;;;21.88;38.88;95605.13;6119204;19;1853;-63
2022/12/06 03:44:02;;;;;;;;;;;;;;;21.85;38.74;95599.34;6122114;19;2084;-63
2022/12/06 03:46:08;;;;;;;;;;;;;;;21.86;39.16;95592.97;6122933;19;2092;-63
2022/12/06 03:48:13;;;;;;;;;;;;;;;21.86;38.95;95603.69;6108181;19;1944;-63
2022/12/06 03:50:19;;;;;;;;;;;;;;;21.80;39.42;95601.84;6105788;19;2194;-66
2022/12/06 03:52:24;;;;;;;;;;;;;;;21.76;38.85;95600.56;6121900;19;1917;-64
2022/12/06 03:54:30;;;;;;;;;;;;;;;21.89;38.85;95595.25;6121566;19;1717;-63
2022/12/06 03:56:35;;;;;;;;;;;;;;;21.88;38.94;95593.56;6120265;19;1993;-63
2022/12/06 03:58:38;;;;;;;;;;;;;;;21.87;39.25;95590.09;6121206;19;2066;-63
2022/12/06 04:00:42;;;;;;;;;;;;;;;21.83;39.22;95588.03;6094306;19;1932;-61
2022/12/06 04:02:45;;;;;;;;;;;;;;;21.80;38.98;95591.13;6122122;19;1959;-68
2022/12/06 04:04:48;;;;;;;;;;;;;;;21.86;39.18;95587.63;6121826;19;1929;-67
2022/12/06 04:06:52;;;;;;;;;;;;;;;21.89;39.05;95595.25;6119576;19;1767;-63
2022/12/06 04:09:51;;;;;;;;;;;;;;;21.85;38.68;95589.50;6119470;19;1919;-63
2022/12/06 04:11:21;;;;;;;;;;;;;;;21.86;38.50;95583.09;6105130;19;1818;-63
2022/12/06 04:13:24;;;;;;;;;;;;;;;21.83;38.49;95582.69;6105964;19;2268;-64
2022/12/06 04:15:28;;;;;;;;;;;;;;;19.59;34.60;95590.22;6118463;19;1136;-63
2022/12/06 04:19:47;;;;;;;;;;;;;;;16.47;37.29;95594.13;6121861;19;1680;-63
2022/12/06 04:24:07;;;;;;;;;;;;;;;15.20;37.52;95595.59;6094204;19;2124;-64
2022/12/06 04:26:11;;;;;;;;;;;;;;;14.67;38.36;95599.41;6118856;19;1907;-63
2022/12/06 04:39:35;;;;;;;;;;;;;;;14.05;38.62;95600.47;6118491;19;838;-63
2022/12/06 04:43:57;;;;;;;;;;;;;;;13.56;39.35;95599.28;6126654;19;2020;-63
2022/12/06 04:46:00;;;;;;;;;;;;;;;13.61;38.90;95604.94;6112309;19;1814;-63
2022/12/06 04:48:04;;;;;;;;;;;;;;;13.38;39.53;95602.75;6109352;19;1872;-63
2022/12/06 04:50:08;;;;;;;;;;;;;;;14.82;38.93;95600.47;6125444;19;2142;-66
2022/12/06 04:52:11;;;;;;;;;;;;;;;16.82;35.87;95600.00;6127179;19;1861;-67
2022/12/06 04:54:14;;;;;;;;;;;;;;;17.99;34.22;95595.38;6126917;19;1840;-67
2022/12/06 04:56:18;;;;;;;;;;;;;;;18.67;33.70;95593.50;6125524;19;1936;-67
2022/12/06 04:58:22;;;;;;;;;;;;;;;19.10;33.90;95597.06;6096865;19;2099;-67
2022/12/06 05:00:28;;;;;;;;;;;;;;;19.38;33.16;95597.16;6126943;19;2017;-61
2022/12/06 05:02:31;;;;;;;;;;;;;;;19.58;33.50;95593.91;6126814;19;1844;-62
2022/12/06 05:04:34;;;;;;;;;;;;;;;19.72;33.17;95589.50;6121995;19;2139;-61
2022/12/06 05:06:38;;;;;;;;;;;;;;;19.81;33.57;95594.50;6125669;19;2023;-62
2022/12/06 05:08:41;;;;;;;;;;;;;;;19.93;33.37;95594.00;6113814;19;1729;-62
2022/12/06 05:10:47;;;;;;;;;;;;;;;20.06;33.31;95596.72;6107743;19;2000;-62
2022/12/06 05:12:51;;;;;;;;;;;;;;;20.15;33.56;95600.09;6125825;19;1849;-62
2022/12/06 05:14:54;;;;;;;;;;;;;;;20.15;33.54;95603.59;6121274;19;1041;-62
2022/12/06 05:17:00;;;;;;;;;;;;;;;20.10;33.86;95604.16;6124783;19;1930;-61
2022/12/06 05:19:03;;;;;;;;;;;;;;;20.14;33.48;95604.59;6123073;19;1693;-61
2022/12/06 05:21:08;;;;;;;;;;;;;;;20.22;33.67;95596.44;6098737;19;2033;-62
2022/12/06 05:23:11;;;;;;;;;;;;;;;20.31;33.54;95589.94;6123438;19;2206;-62
2022/12/06 05:25:15;;;;;;;;;;;;;;;20.31;33.83;95586.44;6123523;19;1915;-62
2022/12/06 05:27:19;;;;;;;;;;;;;;;20.36;33.88;95588.53;6125984;19;1808;-62
2022/12/06 05:29:22;;;;;;;;;;;;;;;20.47;33.90;95590.69;6123088;19;1061;-63
2022/12/06 05:31:26;;;;;;;;;;;;;;;20.54;34.22;95588.88;6121144;19;1071;-62
2022/12/06 05:33:33;;;;;;;;;;;;;;;20.58;33.91;95595.47;6095079;19;1843;-63
2022/12/06 05:35:36;;;;;;;;;;;;;;;20.58;34.01;95592.81;6120629;19;1132;-63
2022/12/06 05:37:39;;;;;;;;;;;;;;;20.65;34.07;95595.50;6120688;19;1859;-63
2022/12/06 05:39:42;;;;;;;;;;;;;;;20.68;34.31;95593.25;6122627;19;954;-62
2022/12/06 05:41:46;;;;;;;;;;;;;;;20.68;34.03;95595.91;6122009;19;1046;-62
2022/12/06 05:43:49;;;;;;;;;;;;;;;20.68;34.02;95595.91;6104937;19;2090;-63
2022/12/06 05:45:53;;;;;;;;;;;;;;;20.72;34.33;95586.50;6117263;19;1098;-63
2022/12/06 05:47:57;;;;;;;;;;;;;;;20.75;34.60;95588.78;6120260;19;969;-63
2022/12/06 05:50:03;;;;;;;;;;;;;;;20.79;34.26;95592.69;6121419;19;1057;-63
2022/12/06 05:52:08;;;;;;;;;;;;;;;20.82;34.29;95588.78;6119021;19;979;-63
2022/12/06 05:54:11;;;;;;;;;;;;;;;20.83;34.27;95582.44;6120372;19;1848;-63
2022/12/06 05:56:15;;;;;;;;;;;;;;;20.87;34.47;95585.53;6095893;19;2050;-63
2022/12/06 05:58:19;;;;;;;;;;;;;;;20.88;34.36;95581.84;6122570;19;1029;-63
2022/12/06 06:00:22;;;;;;;;;;;;;;;20.87;34.63;95580.19;6120301;19;1140;-63
2022/12/06 06:02:26;;;;;;;;;;;;;;;20.86;34.36;95578.53;6119489;19;1065;-62
2022/12/06 06:04:29;;;;;;;;;;;;;;;20.84;35.31;95581.41;6121840;19;1054;-62
2022/12/06 06:06:35;;;;;;;;;;;;;;;20.91;35.44;95581.44;6107797;19;1553;-62
2022/12/06 06:08:38;;;;;;;;;;;;;;;20.94;34.75;95586.38;6106757;19;2143;-62
2022/12/06 06:10:41;;;;;;;;;;;;;;;20.91;34.80;95586.78;6119475;19;1049;-62
2022/12/06 06:12:46;;;;;;;;;;;;;;;20.92;35.15;95586.59;6120313;19;1853;-62
2022/12/06 06:14:49;;;;;;;;;;;;;;;20.97;35.22;95593.97;6120309;19;986;-62
2022/12/06 06:16:53;;;;;;;;;;;;;;;20.98;34.92;95595.66;6119471;19;1143;-62
2022/12/06 06:18:56;;;;;;;;;;;;;;;21.00;35.06;95596.28;6094003;19;1289;-62
2022/12/06 06:21:01;;;;;;;;;;;;;;;21.03;35.54;95590.53;6119639;19;1660;-61
2022/12/06 06:23:07;;;;;;;;;;;;;;;21.06;35.71;95584.78;6119797;19;1034;-61
2022/12/06 06:25:11;;;;;;;;;;;;;;;21.09;35.48;95584.38;6119229;19;1066;-61
2022/12/06 06:27:14;;;;;;;;;;;;;;;21.11;35.98;95578.81;6119850;19;1280;-62
2022/12/06 06:29:17;;;;;;;;;;;;;;;21.13;35.54;95580.28;6114752;19;1725;-61
2022/12/06 06:31:23;;;;;;;;;;;;;;;21.14;36.07;95576.59;6103337;19;1593;-61
2022/12/06 06:33:27;;;;;;;;;;;;;;;21.18;35.79;95585.06;6118974;19;1849;-61
2022/12/06 06:35:31;;;;;;;;;;;;;;;21.19;36.11;95592.03;6119605;19;1049;-62
2022/12/06 06:37:34;;;;;;;;;;;;;;;21.18;35.96;95587.72;6121645;19;980;-61
2022/12/06 06:39:40;;;;;;;;;;;;;;;21.20;35.71;95591.84;6120479;19;1041;-62
2022/12/06 06:41:43;;;;;;;;;;;;;;;21.21;35.69;95593.50;6095919;19;1290;-64
2022/12/06 06:43:46;;;;;;;;;;;;;;;21.26;35.46;95592.06;6120702;19;1152;-64
2022/12/06 06:45:53;;;;;;;;;;;;;;;21.24;35.65;95592.28;6121476;19;962;-64
2022/12/06 06:47:57;;;;;;;;;;;;;;;21.27;35.42;95591.88;6119134;19;974;-63
2022/12/06 06:50:00;;;;;;;;;;;;;;;21.23;35.35;95588.78;6118890;19;1122;-64
2022/12/06 06:52:03;;;;;;;;;;;;;;;21.27;35.10;95591.88;6119225;19;1050;-64
2022/12/06 06:54:07;;;;;;;;;;;;;;;21.27;35.11;95588.38;6093482;19;1869;-64
2022/12/06 06:56:12;;;;;;;;;;;;;;;21.28;34.69;95587.34;6121384;19;1273;-61
2022/12/06 06:58:16;;;;;;;;;;;;;;;21.29;35.40;95583.66;6119374;19;1026;-61
2022/12/06 07:00:20;;;;;;;;;;;;;;;21.30;35.13;95585.28;6120489;19;1125;-61
2022/12/06 07:02:23;;;;;;;;;;;;;;;21.31;35.65;95574.38;6118199;19;1046;-62
2022/12/06 07:04:27;;;;;;;;;;;;;;;21.34;35.32;95576.69;6094876;19;1295;-63
2022/12/06 07:06:30;;;;;;;;;;;;;;;21.36;35.29;95579.13;6118819;19;2045;-62
2022/12/06 07:08:33;;;;;;;;;;;;;;;21.37;35.27;95570.06;6118727;19;1287;-62
2022/12/06 07:10:37;;;;;;;;;;;;;;;21.38;35.74;95577.09;6119717;19;1990;-62
2022/12/06 07:12:43;;;;;;;;;;;;;;;21.35;35.37;95574.81;6121843;19;1935;-63
2022/12/06 07:14:46;;;;;;;;;;;;;;;21.32;35.27;95572.56;6121729;19;1922;-63
2022/12/06 07:16:49;;;;;;;;;;;;;;;21.30;35.50;95574.59;6093779;19;2035;-62
2022/12/06 07:18:53;;;;;;;;;;;;;;;21.26;35.38;95574.19;6121839;19;2147;-62
2022/12/06 07:21:00;;;;;;;;;;;;;;;21.34;35.72;95571.34;6120743;19;1911;-62
2022/12/06 07:23:04;;;;;;;;;;;;;;;21.38;35.71;95572.56;6120639;19;2108;-62
2022/12/06 07:25:07;;;;;;;;;;;;;;;21.40;35.75;95575.84;6118090;19;1070;-62
2022/12/06 07:27:11;;;;;;;;;;;;;;;21.45;35.75;95573.41;6105957;19;1980;-62
2022/12/06 07:29:17;;;;;;;;;;;;;;;21.36;35.88;95579.94;6107105;19;2138;-62
2022/12/06 07:31:21;;;;;;;;;;;;;;;21.40;35.51;95573.19;6122828;19;2124;-62
2022/12/06 07:33:24;;;;;;;;;;;;;;;21.41;35.28;95582.03;6117576;19;1825;-62
2022/12/06 07:35:28;;;;;;;;;;;;;;;21.39;35.18;95589.41;6118087;19;2248;-62
2022/12/06 07:37:31;;;;;;;;;;;;;;;21.37;35.51;95586.13;6121858;19;1841;-62
2022/12/06 07:39:35;;;;;;;;;;;;;;;21.36;35.54;95579.13;6092049;19;1647;-63
2022/12/06 07:46:14;;;;;;;;;;;;;;;21.31;35.53;95570.88;6118782;19;846;-62
2022/12/06 07:48:19;;;;;;;;;;;;;;;21.27;35.62;95570.47;6119259;19;1723;-62
2022/12/06 07:50:23;;;;;;;;;;;;;;;21.28;35.14;95571.28;6105998;19;1963;-62
2022/12/06 07:52:27;;;;;;;;;;;;;;;21.23;35.38;95569.25;6108274;19;2139;-62
2022/12/06 07:54:30;;;;;;;;;;;;;;;21.23;35.44;95567.41;6119871;19;2044;-62
2022/12/06 07:56:33;;;;;;;;;;;;;;;21.23;35.61;95567.41;6122558;19;1718;-62
2022/12/06 07:58:37;;;;;;;;;;;;;;;21.10;35.31;95570.00;6118834;19;1131;-60
2022/12/06 08:00:40;;;;;;;;;;;;;;;21.09;35.48;95568.34;6117204;19;1053;-62
2022/12/06 08:02:46;;;;;;;;;;;;;;;21.31;35.79;95568.22;6092067;19;2075;-61
2022/12/06 08:04:50;;;;;;;;;;;;;;;21.34;35.47;95574.00;6118949;19;1061;-61
2022/12/06 08:06:53;;;;;;;;;;;;;;;21.35;35.74;95572.16;6119160;19;1061;-61
2022/12/06 08:08:56;;;;;;;;;;;;;;;21.39;35.37;95573.38;6116509;19;1342;-61
2022/12/06 08:11:00;;;;;;;;;;;;;;;21.41;35.62;95568.66;6118725;19;1042;-62
2022/12/06 08:13:04;;;;;;;;;;;;;;;21.42;35.74;95576.47;6105077;19;1225;-62
2022/12/06 08:15:11;;;;;;;;;;;;;;;21.45;35.36;95577.91;6102514;19;2077;-61
2022/12/06 08:17:15;;;;;;;;;;;;;;;21.40;35.64;95575.03;6116659;19;1031;-62
2022/12/06 08:19:21;;;;;;;;;;;;;;;21.37;35.89;95573.59;6116772;19;1054;-67
2022/12/06 08:21:25;;;;;;;;;;;;;;;21.46;35.54;95576.91;6118585;19;1148;-68
2022/12/06 08:23:28;;;;;;;;;;;;;;;21.50;35.33;95570.09;6117773;19;1038;-68
2022/12/06 08:25:32;;;;;;;;;;;;;;;21.51;35.35;95566.41;6092675;19;1132;-68
2022/12/06 08:27:35;;;;;;;;;;;;;;;21.54;35.77;95566.00;6118569;19;1009;-70
2022/12/06 08:29:38;;;;;;;;;;;;;;;21.58;35.81;95574.44;6118772;19;1013;-70
2022/12/06 08:31:44;;;;;;;;;;;;;;;21.57;35.73;95565.59;6117298;19;1085;-68
2022/12/06 08:33:48;;;;;;;;;;;;;;;21.57;35.83;95559.41;6117522;19;1971;-62
2022/12/06 08:35:54;;;;;;;;;;;;;;;21.52;35.75;95557.38;6119432;19;1747;-62
2022/12/06 08:37:57;;;;;;;;;;;;;;;21.49;35.73;95556.97;6098348;19;1720;-61
2022/12/06 08:40:00;;;;;;;;;;;;;;;21.52;36.06;95548.53;6118480;19;2076;-62
2022/12/06 08:42:05;;;;;;;;;;;;;;;21.51;35.92;95553.03;6115847;19;1642;-62
2022/12/06 08:44:11;;;;;;;;;;;;;;;21.51;35.63;95558.38;6119382;19;1905;-62
2022/12/06 08:46:13;;;;;;;;;;;;;;;;;;6119563;19;2421;-61
2022/12/06 08:48:17;;;;;;;;;;;;;;;21.49;35.66;95549.75;6093585;19;2066;-68
2022/12/06 08:50:20;;;;;;;;;;;;;;;21.55;35.77;95548.94;6118728;19;1736;-63
2022/12/06 08:52:26;;;;;;;;;;;;;;;21.54;35.87;95544.63;6117503;19;1915;-69
2022/12/06 08:54:30;;;;;;;;;;;;;;;21.59;35.48;95544.81;6115958;19;1850;-68
2022/12/06 08:56:33;;;;;;;;;;;;;;;21.62;35.43;95544.41;6120184;19;1556;-68
2022/12/06 08:58:36;;;;;;;;;;;;;;;21.65;35.75;95545.84;6119880;19;1480;-68
2022/12/06 09:00:39;;;;;;;;;;;;;;;21.63;35.65;95546.06;6091895;19;1922;-67
2022/12/06 09:02:43;;;;;;;;;;;;;;;21.58;36.00;95540.50;6117082;19;2206;-61
2022/12/06 09:04:46;;;;;;;;;;;;;;;21.51;36.28;95542.31;6117694;19;2123;-64
2022/12/06 09:06:49;;;;;;;;;;;;;;;21.56;36.22;95537.19;6115724;19;1140;-68
2022/12/06 09:08:57;;;;;;;;;;;;;;;21.60;35.73;95543.78;6116099;19;1284;-69
2022/12/06 09:11:00;;;;;;;;;;;;;;;21.62;36.03;95540.91;6104593;19;1955;-69
2022/12/06 09:13:03;;;;;;;;;;;;;;;21.66;35.78;95537.63;6103977;19;2034;-70
2022/12/06 09:15:07;;;;;;;;;;;;;;;21.63;35.78;95532.69;6118987;19;1909;-68
2022/12/06 09:17:10;;;;;;;;;;;;;;;21.71;35.76;95523.63;6117074;19;1096;-68
2022/12/06 09:19:14;;;;;;;;;;;;;;;21.72;36.06;95522.59;6118520;19;2199;-67
2022/12/06 09:21:19;;;;;;;;;;;;;;;21.73;35.82;95516.22;6116763;19;1852;-69
2022/12/06 09:23:22;;;;;;;;;;;;;;;21.72;35.64;95511.91;6091554;19;1564;-68
2022/12/06 09:25:28;;;;;;;;;;;;;;;21.73;36.08;95507.38;6119000;19;1961;-68
2022/12/06 09:27:32;;;;;;;;;;;;;;;21.71;35.76;95506.75;6117285;19;1911;-67
2022/12/06 09:29:36;;;;;;;;;;;;;;;21.75;35.96;95503.47;6119361;19;1961;-69
2022/12/06 09:31:39;;;;;;;;;;;;;;;21.78;36.12;95495.03;6123202;19;2105;-61
2022/12/06 09:33:43;;;;;;;;;;;;;;;21.75;35.79;95494.63;6111323;19;1936;-61
2022/12/06 09:35:46;;;;;;;;;;;;;;;21.68;36.05;95482.09;6106691;19;2001;-61
2022/12/06 09:37:50;;;;;;;;;;;;;;;21.66;36.53;95478.78;6125808;19;2092;-61
2022/12/06 09:39:55;;;;;;;;;;;;;;;21.60;36.41;95476.13;6120998;19;2061;-61
2022/12/06 09:42:08;;;;;;;;;;;;;;;21.63;36.47;95468.50;6121833;19;1753;-61
2022/12/06 09:44:20;;;;;;;;;;;;;;;21.72;36.55;95452.25;6119572;19;978;-61
2022/12/06 09:46:31;;;;;;;;;;;;;;;21.71;36.03;95453.25;6095830;19;2100;-62
2022/12/06 09:48:53;;;;;;;;;;;;;;;21.71;36.39;95448.72;6121744;19;1700;-60
2022/12/06 09:51:04;;;;;;;;;;;;;;;21.65;36.49;95450.41;6122126;19;1888;-61
2022/12/06 09:53:12;;;;;;;;;;;;;;;21.68;36.46;95443.78;6121952;19;2148;-61
2022/12/06 09:55:25;;;;;;;;;;;;;;;21.68;36.46;95443.78;6120191;19;1876;-61
2022/12/06 09:57:36;;;;;;;;;;;;;;;21.69;36.55;95442.78;6096221;19;1930;-62
2022/12/06 09:59:44;;;;;;;;;;;;;;;21.74;36.08;95452.84;6117132;19;2226;-62
2022/12/06 10:01:55;;;;;;;;;;;;;;;21.70;36.26;95451.63;6119975;19;2018;-67
2022/12/06 10:04:06;;;;;;;;;;;;;;;21.73;36.47;95445.84;6121455;19;1936;-67
2022/12/06 10:06:11;;;;;;;;;;;;;;;21.79;36.07;95453.03;6122192;19;1933;-67
2022/12/06 10:08:23;;;;;;;;;;;;;;;21.80;36.25;95452.03;6114430;19;1710;-66
2022/12/06 10:10:34;;;;;;;;;;;;;;;21.79;36.28;95440.47;6107291;19;1933;-66
2022/12/06 10:12:53;;;;;;;;;;;;;;;21.78;35.99;95438.84;6121748;19;1112;-61
2022/12/06 10:15:04;;;;;;;;;;;;;;;21.72;36.13;95438.88;6120431;19;2361;-62
2022/12/06 10:17:12;;;;;;;;;;;;;;;21.72;36.25;95428.19;6119012;19;2329;-61
2022/12/06 10:19:20;;;;;;;;;;;;;;;21.72;36.10;95417.47;6120241;19;1678;-61
2022/12/06 10:21:28;;;;;;;;;;;;;;;21.71;35.75;95423.84;6090459;19;1857;-62
2022/12/06 10:23:41;;;;;;;;;;;;;;;21.72;35.49;95417.47;6118505;19;1072;-62
2022/12/06 10:25:48;;;;;;;;;;;;;;;21.70;35.58;95414.19;6122431;19;2074;-69
2022/12/06 10:27:59;;;;;;;;;;;;;;;21.71;35.64;95402.44;6123906;19;1935;-68
2022/12/06 10:30:04;;;;;;;;;;;;;;;21.78;35.74;95403.25;6122382;19;2115;-69
2022/12/06 10:32:14;;;;;;;;;;;;;;;21.81;36.03;95397.50;6095127;19;1455;-67
2022/12/06 10:34:22;;;;;;;;;;;;;;;21.80;35.71;95393.19;6123230;19;1784;-69
2022/12/06 10:36:43;;;;;;;;;;;;;;;21.82;36.03;95401.81;6120225;19;1041;-68
2022/12/06 10:38:48;;;;;;;;;;;;;;;21.83;35.72;95392.75;6121167;19;1913;-69
2022/12/06 10:40:55;;;;;;;;;;;;;;;21.80;36.08;95396.69;6121670;19;2101;-62
2022/12/06 10:43:03;;;;;;;;;;;;;;;21.73;35.87;95389.69;6108438;19;1471;-62
2022/12/06 10:47:02;;;;;;;;;;;;;;;21.78;36.34;95381.88;6104076;19;2206;-62
2022/12/06 10:47:37;;;;;;;;;;;;;;;21.77;35.76;95394.41;6123176;19;2070;-62
2022/12/06 10:49:50;;;;;;;;;;;;;;;21.80;36.19;95393.19;6122623;19;2143;-62
2022/12/06 10:51:58;;;;;;;;;;;;;;;21.88;35.55;95403.63;6118962;19;1938;-62
2022/12/06 10:54:04;;;;;;;;;;;;;;;21.92;35.49;95396.84;6119817;19;1873;-62
2022/12/06 10:56:12;;;;;;;;;;;;;;;21.93;35.86;95398.47;6095487;19;2225;-62
2022/12/06 10:58:24;;;;;;;;;;;;;;;21.98;35.64;95390.66;6118307;19;1018;-62
2022/12/06 11:00:28;;;;;;;;;;;;;;;22.03;35.43;95387.38;6121543;19;1943;-62
2022/12/06 11:02:36;;;;;;;;;;;;;;;22.03;35.61;95398.06;6116972;19;2257;-62
2022/12/06 11:04:40;;;;;;;;;;;;;;;22.07;35.46;95388.59;6120487;19;2095;-62
2022/12/06 11:06:46;;;;;;;;;;;;;;;22.12;35.43;95380.75;6091897;19;2167;-62
2022/12/06 11:08:52;;;;;;;;;;;;;;;22.17;35.19;95366.72;6119193;19;2062;-62
2022/12/06 11:10:57;;;;;;;;;;;;;;;22.19;35.36;95359.28;6122167;19;1896;-62
2022/12/06 11:13:03;;;;;;;;;;;;;;;22.21;35.42;95357.22;6117984;19;2021;-63
2022/12/06 11:15:17;;;;;;;;;;;;;;;22.20;35.79;95358.28;6119945;19;1838;-62
2022/12/06 11:17:24;;;;;;;;;;;;;;;22.19;35.51;95352.09;6113945;19;1863;-63
2022/12/06 11:19:31;;;;;;;;;;;;;;;22.19;36.02;95353.94;6107949;19;2117;-62
2022/12/06 11:21:41;;;;;;;;;;;;;;;22.22;35.66;95356.19;6117927;19;1070;-62
2022/12/06 11:23:49;;;;;;;;;;;;;;;22.22;35.77;95353.50;6120325;19;1024;-62
2022/12/06 11:26:01;;;;;;;;;;;;;;;22.19;35.99;95343.22;6120801;19;2108;-62